Terminal Aerodrome Forecast
Issued by NWS

Home | Current Version | Previous Version | Text Only | Print | Product List | Glossary On
Versions: 1 2 3 4 5 6 7 8 9 10 11 12 13 14 15 16 17 18 19 20
000
FTUS43 KMPX 041120
TAFRNH
TAF
KRNH 041120Z 0412/0512 12006KT P6SM SCT025
     FM041400 13007KT P6SM SCT035 BKN120
     FM042000 14012KT P6SM BKN120
     FM050000 13008KT P6SM VCSH SCT040 OVC120
     FM050600 13004KT 6SM BR SCT120=

USA.gov is the U.S. government's official web portal to all federal, state and local government web resources and services.